»·PEaware :: N973SE KSBP-KBFL

N973SE :: KSBP-KBFL

FLIGHT INFORMATION

Flight Status: Arrived
Operator: Privately registered:
United States
More flights under this callsign
Pilot: Stig E. (4778)
Aircraft: CESSNA 310
(C310)
More flights by this aircraft type
Origin: KSBP San Luis Co Regl
United States
Destination: KBFL Meadows
United States
More flights between these airports :: More routes between these airports
Route: FLW FASTO
File this flight plan on PilotEdge
Remarks:
Altitude:
(Current/Filed)
9,500ft
Speed:
(Current/Filed)
170kts
Departed: 20-Jan-19 12:06 AM
Arrived: 20-Jan-19 12:47 AM
Distance/Time
Traveled:
79nm/0:41
Distance/Time
To Go:
Arrived

Flight Plot

Page will automatically refresh every two minutes.

Flight plan parsing failed; only flown route is shown


Map Options




Map Legend


Flown Route
Filed Route
Departure Airport
Arrival Airport
Navaid (VOR, NDB)
Fix

Horizontal Profiles

Position Reports

Time Latitude Longitude Heading Altitude Ground
Speed
20-Jan-19 00:00 35.238241 -120.639983 308 215ft 0kts
20-Jan-19 00:01 35.238241 -120.639983 308 215ft 0kts
20-Jan-19 00:02 35.238241 -120.639983 308 215ft 0kts
20-Jan-19 00:03 35.238695 -120.641700 306 215ft 15kts
20-Jan-19 00:04 35.242006 -120.647340 304 216ft 16kts
20-Jan-19 00:05 35.241091 -120.647483 124 216ft 55kts
20-Jan-19 00:06 35.222909 -120.614414 122 1180ft 147kts
20-Jan-19 00:07 35.218375 -120.566824 72 2196ft 155kts
20-Jan-19 00:08 35.214730 -120.515468 103 3197ft 156kts
20-Jan-19 00:09 35.204921 -120.462975 103 4197ft 158kts
20-Jan-19 00:10 35.195170 -120.409985 103 5195ft 160kts
20-Jan-19 00:11 35.185244 -120.356248 99 6190ft 165kts
20-Jan-19 00:12 35.174919 -120.300090 101 7198ft 172kts
20-Jan-19 00:13 35.164159 -120.241972 102 8204ft 176kts
20-Jan-19 00:14 35.153186 -120.182914 103 9203ft 180kts
20-Jan-19 00:15 35.141255 -120.118961 103 9513ft 207kts
20-Jan-19 00:16 35.128403 -120.049470 103 9512ft 209kts
20-Jan-19 00:17 35.115689 -119.979762 103 9514ft 210kts
20-Jan-19 00:18 35.102695 -119.910289 103 9470ft 211kts
20-Jan-19 00:19 35.098936 -119.840382 78 9472ft 209kts
20-Jan-19 00:20 35.110619 -119.771742 76 9472ft 204kts
20-Jan-19 00:21 35.122808 -119.704108 76 9478ft 203kts
20-Jan-19 00:22 35.135044 -119.636619 76 9486ft 202kts
20-Jan-19 00:23 35.147212 -119.569384 76 9494ft 202kts
20-Jan-19 00:24 35.159251 -119.501815 76 9501ft 202kts
20-Jan-19 00:25 35.171365 -119.434178 76 9501ft 203kts
20-Jan-19 00:26 35.183465 -119.366569 76 9501ft 203kts
20-Jan-19 00:27 35.195512 -119.298993 77 9426ft 204kts
20-Jan-19 00:28 35.207366 -119.232240 76 8693ft 197kts
20-Jan-19 00:30 35.218790 -119.167792 76 7886ft 191kts
20-Jan-19 00:31 35.229883 -119.104989 76 7084ft 187kts
20-Jan-19 00:32 35.240727 -119.043403 76 6284ft 183kts
20-Jan-19 00:33 35.251362 -118.982775 76 5482ft 180kts
20-Jan-19 00:34 35.261781 -118.924187 76 4807ft 166kts
20-Jan-19 00:35 35.270705 -118.873713 76 4797ft 141kts
20-Jan-19 00:36 35.278734 -118.827781 76 4799ft 134kts
20-Jan-19 00:37 35.288106 -118.784108 41 4804ft 129kts
20-Jan-19 00:38 35.307566 -118.801860 283 4804ft 112kts
20-Jan-19 00:39 35.314005 -118.840350 283 4794ft 109kts
20-Jan-19 00:40 35.320517 -118.879024 283 4232ft 125kts
20-Jan-19 00:41 35.328058 -118.921424 290 3448ft 126kts
20-Jan-19 00:42 35.349818 -118.954156 314 2783ft 124kts
20-Jan-19 00:43 35.373640 -118.983419 315 2114ft 118kts
20-Jan-19 00:44 35.396543 -119.011068 315 1490ft 107kts
20-Jan-19 00:45 35.416860 -119.035608 315 932ft 99kts
20-Jan-19 00:46 35.435244 -119.057905 314 489ft 58kts
20-Jan-19 00:47 35.437720 -119.058592 136 496ft 11kts
20-Jan-19 00:48 35.434971 -119.055235 139 494ft 15kts
20-Jan-19 00:49 35.435378 -119.053900 119 500ft 0kts
20-Jan-19 00:49 35.435378 -119.053900 119 500ft 0kts
20-Jan-19 00:58 35.435714 -119.052044 180 509ft 0kts
20-Jan-19 00:59 35.435714 -119.052044 180 509ft 0kts
20-Jan-19 01:00 35.435714 -119.052044 180 509ft 0kts

Navigation Log

Ident Type
Flight plan parsing failed, navigation log unavailable